Time;durP1;ratioP1;P1;durP2;ratioP2;P2;SDS_P1;SDS_P2;PMS_P1;PMS_P2;Temp;Humidity;BMP_temperature;BMP_pressure;BME280_temperature;BME280_humidity;BME280_pressure;Samples;Min_cycle;Max_cycle;Signal;HPM_P1;HPM_P2
2021/12/28 00:04:40;;;;;;;11.53;8.33;;;9.10;99.90;;;;;;10358536;28;20226;-72
2021/12/28 00:09:40;;;;;;;9.63;7.07;;;9.20;99.90;;;;;;10363231;28;20215;-71
2021/12/28 00:14:50;;;;;;;13.10;8.30;;;9.10;99.90;;;;;;10360858;28;20261;-71
2021/12/28 00:19:50;;;;;;;10.10;7.23;;;8.90;99.90;;;;;;10349644;28;20291;-71
2021/12/28 00:24:51;;;;;;;12.50;7.80;;;8.70;99.90;;;;;;10359235;28;20639;-70
2021/12/28 00:29:52;;;;;;;14.30;7.30;;;8.70;99.90;;;;;;10358163;28;20224;-71
2021/12/28 00:34:52;;;;;;;13.43;7.10;;;8.80;99.90;;;;;;10364730;28;20227;-71
2021/12/28 00:39:56;;;;;;;16.83;6.93;;;8.80;99.90;;;;;;10363904;28;20283;-70
2021/12/28 00:44:56;;;;;;;21.33;7.00;;;8.90;99.90;;;;;;10349901;28;20571;-70
2021/12/28 00:49:57;;;;;;;19.20;6.03;;;9.00;99.90;;;;;;10349866;28;20224;-70
2021/12/28 00:54:58;;;;;;;11.33;5.33;;;9.10;99.90;;;;;;10360746;28;20236;-71
2021/12/28 00:59:59;;;;;;;11.27;5.50;;;9.20;99.90;;;;;;10353847;28;20685;-70
2021/12/28 01:05:03;;;;;;;13.83;4.63;;;9.20;99.90;;;;;;10359822;28;20593;-70
2021/12/28 01:10:08;;;;;;;15.50;4.60;;;9.30;99.90;;;;;;10314447;28;20696;-70
2021/12/28 01:15:10;;;;;;;16.20;4.63;;;9.30;99.90;;;;;;10352668;28;20228;-71
2021/12/28 01:20:13;;;;;;;13.70;4.20;;;9.40;99.90;;;;;;10366081;28;20879;-71
2021/12/28 01:25:15;;;;;;;13.97;4.10;;;9.40;99.90;;;;;;10366075;28;20211;-72
2021/12/28 01:30:20;;;;;;;18.63;4.10;;;9.50;99.90;;;;;;10364647;28;20186;-72
2021/12/28 01:35:21;;;;;;;15.93;3.73;;;9.50;99.90;;;;;;10368901;28;20204;-71
2021/12/28 01:40:26;;;;;;;18.40;3.93;;;9.60;99.90;;;;;;10362632;28;20187;-71
2021/12/28 01:45:37;;;;;;;18.13;4.07;;;9.70;99.90;;;;;;10363815;28;20221;-72
2021/12/28 01:50:38;;;;;;;12.13;3.83;;;9.70;99.90;;;;;;10363436;28;20925;-72
2021/12/28 01:55:40;;;;;;;17.07;4.03;;;9.80;99.90;;;;;;10362610;28;20666;-71
2021/12/28 02:00:43;;;;;;;12.40;3.43;;;9.70;99.90;;;;;;10366347;28;20262;-71
2021/12/28 02:05:44;;;;;;;10.93;3.73;;;9.70;99.90;;;;;;10367949;28;20225;-71
2021/12/28 02:10:46;;;;;;;12.97;3.80;;;9.70;99.90;;;;;;10366537;28;20307;-72
2021/12/28 02:15:48;;;;;;;11.70;3.50;;;9.70;99.90;;;;;;10361176;28;20230;-70
2021/12/28 02:20:50;;;;;;;15.57;3.83;;;9.70;99.90;;;;;;10358762;28;20258;-72
2021/12/28 02:25:51;;;;;;;17.23;4.00;;;9.60;99.90;;;;;;10362700;28;20341;-72
2021/12/28 02:30:56;;;;;;;11.53;3.53;;;9.60;99.90;;;;;;10361044;28;20286;-72
2021/12/28 02:36:03;;;;;;;13.53;3.27;;;9.60;99.90;;;;;;10353647;28;20611;-72
2021/12/28 02:41:04;;;;;;;8.40;2.90;;;9.50;99.90;;;;;;10375438;28;20215;-72
2021/12/28 02:46:07;;;;;;;14.67;3.63;;;9.50;99.90;;;;;;10354591;28;20269;-70
2021/12/28 02:51:11;;;;;;;17.50;3.40;;;9.50;99.90;;;;;;10360561;28;20219;-71
2021/12/28 02:56:14;;;;;;;13.37;3.10;;;9.50;99.90;;;;;;10356639;28;20222;-71
2021/12/28 03:01:14;;;;;;;14.53;3.10;;;9.60;99.90;;;;;;10364780;28;20221;-70
2021/12/28 03:06:18;;;;;;;15.70;3.03;;;9.50;99.90;;;;;;10362054;28;20227;-72
2021/12/28 03:11:18;;;;;;;11.43;3.27;;;9.50;99.90;;;;;;10364098;28;20229;-71
2021/12/28 03:16:22;;;;;;;12.93;3.07;;;9.40;99.90;;;;;;10365552;28;20234;-72
2021/12/28 03:21:24;;;;;;;11.10;2.90;;;9.30;99.90;;;;;;10367874;28;20217;-70
2021/12/28 03:26:25;;;;;;;14.30;3.57;;;9.40;99.90;;;;;;10357828;28;20220;-70
2021/12/28 03:31:28;;;;;;;12.57;3.40;;;9.50;99.90;;;;;;10366561;28;20225;-70
2021/12/28 03:36:29;;;;;;;13.53;3.13;;;9.60;99.90;;;;;;10358899;28;20945;-71
2021/12/28 03:41:31;;;;;;;10.40;2.60;;;9.70;99.90;;;;;;10358451;28;20227;-70
2021/12/28 03:46:32;;;;;;;10.17;2.60;;;9.80;99.90;;;;;;10366380;28;20643;-72
2021/12/28 03:51:32;;;;;;;10.57;2.70;;;9.80;99.90;;;;;;10357439;28;20242;-70
2021/12/28 03:56:34;;;;;;;10.63;2.77;;;9.80;99.90;;;;;;10359076;28;20231;-71
2021/12/28 04:01:35;;;;;;;13.73;2.73;;;9.80;99.90;;;;;;10365669;28;20253;-69
2021/12/28 04:06:36;;;;;;;13.50;2.60;;;9.80;99.90;;;;;;10358836;28;20221;-72
2021/12/28 04:11:37;;;;;;;8.80;2.50;;;9.80;99.90;;;;;;10364096;28;20263;-72
2021/12/28 04:16:37;;;;;;;12.27;2.80;;;9.80;99.90;;;;;;10366096;28;20310;-71
2021/12/28 04:21:38;;;;;;;9.60;2.30;;;9.80;99.90;;;;;;10357641;28;20604;-71
2021/12/28 04:26:39;;;;;;;10.07;3.40;;;9.90;99.90;;;;;;10357610;28;20770;-71
2021/12/28 04:31:40;;;;;;;10.47;2.37;;;10.00;99.90;;;;;;10357835;28;20257;-70
2021/12/28 04:36:40;;;;;;;10.33;2.30;;;10.00;99.90;;;;;;10366204;28;20322;-71
2021/12/28 04:41:41;;;;;;;11.93;2.67;;;10.00;99.90;;;;;;10353657;28;20228;-71
2021/12/28 04:46:42;;;;;;;7.97;2.27;;;10.00;99.90;;;;;;10362810;28;20226;-71
2021/12/28 04:51:43;;;;;;;11.47;2.77;;;10.00;99.90;;;;;;10362669;28;20286;-70
2021/12/28 04:56:45;;;;;;;11.47;2.33;;;9.90;99.90;;;;;;10352643;28;20229;-70
2021/12/28 05:01:46;;;;;;;9.97;2.80;;;9.70;99.90;;;;;;10356714;28;20239;-70
2021/12/28 05:06:51;;;;;;;9.27;2.57;;;9.60;99.90;;;;;;10357652;28;20232;-71
2021/12/28 05:11:51;;;;;;;7.83;2.87;;;9.50;99.90;;;;;;10352575;28;20238;-71
2021/12/28 05:16:57;;;;;;;14.87;2.70;;;9.50;99.90;;;;;;10356930;28;20232;-70
2021/12/28 05:21:57;;;;;;;8.83;2.60;;;9.40;99.90;;;;;;10353246;28;20233;-70
2021/12/28 05:26:58;;;;;;;14.97;2.60;;;9.30;99.90;;;;;;10356968;28;20218;-70
2021/12/28 05:31:58;;;;;;;12.53;3.47;;;9.30;99.90;;;;;;10362287;28;20317;-70
2021/12/28 05:36:59;;;;;;;15.90;2.90;;;9.10;99.90;;;;;;10360408;28;20743;-71
2021/12/28 05:42:00;;;;;;;11.20;2.90;;;9.00;99.90;;;;;;10356841;28;20218;-69
2021/12/28 05:47:01;;;;;;;18.43;3.20;;;8.80;99.90;;;;;;10362487;28;20230;-70
2021/12/28 05:52:01;;;;;;;13.23;2.53;;;8.70;99.90;;;;;;10361554;28;20228;-70
2021/12/28 05:57:02;;;;;;;12.00;2.63;;;8.60;99.90;;;;;;10358276;28;20223;-71
2021/12/28 06:02:04;;;;;;;17.63;2.60;;;8.60;99.90;;;;;;10353466;28;20285;-70
2021/12/28 06:07:05;;;;;;;13.63;2.80;;;8.60;99.90;;;;;;10364686;28;20290;-70
2021/12/28 06:12:06;;;;;;;20.57;2.50;;;8.60;99.90;;;;;;10358890;28;20220;-71
2021/12/28 06:17:09;;;;;;;13.77;1.83;;;8.60;99.90;;;;;;10367213;28;20219;-71
2021/12/28 06:22:10;;;;;;;9.97;1.57;;;8.60;99.90;;;;;;10369224;28;20221;-71
2021/12/28 06:27:11;;;;;;;18.13;2.30;;;8.60;99.90;;;;;;10354723;28;20311;-71
2021/12/28 06:32:11;;;;;;;15.93;2.47;;;8.60;99.90;;;;;;10368918;28;20219;-70
2021/12/28 06:37:12;;;;;;;19.90;2.73;;;8.70;99.90;;;;;;10362941;28;20220;-70
2021/12/28 06:42:21;;;;;;;12.47;2.13;;;8.70;99.90;;;;;;10367326;28;20222;-71
2021/12/28 06:47:22;;;;;;;11.77;1.90;;;8.70;99.90;;;;;;10363191;28;20218;-71
2021/12/28 06:52:23;;;;;;;9.87;1.87;;;8.70;99.90;;;;;;10363143;28;20231;-70
2021/12/28 06:57:23;;;;;;;12.33;2.20;;;8.70;99.90;;;;;;10357507;28;20230;-71
2021/12/28 07:02:24;;;;;;;10.17;1.47;;;8.70;99.90;;;;;;10368452;28;20366;-71
2021/12/28 07:07:24;;;;;;;7.07;1.40;;;8.70;99.90;;;;;;10356959;28;20721;-71
2021/12/28 07:12:25;;;;;;;7.23;1.80;;;8.80;99.90;;;;;;10367000;28;20261;-71
2021/12/28 07:17:27;;;;;;;8.73;1.33;;;8.70;99.90;;;;;;10365202;28;20227;-70
2021/12/28 07:22:27;;;;;;;9.27;1.80;;;8.70;99.90;;;;;;10360807;28;20231;-70
2021/12/28 07:27:28;;;;;;;11.37;1.50;;;8.70;99.90;;;;;;10361633;28;20220;-70
2021/12/28 07:32:28;;;;;;;8.47;2.00;;;8.70;99.90;;;;;;10362626;28;20690;-70
2021/12/28 07:37:29;;;;;;;4.60;1.10;;;8.70;99.90;;;;;;10357615;28;20224;-70
2021/12/28 07:42:30;;;;;;;8.37;1.50;;;8.70;99.90;;;;;;10366123;28;20634;-72
2021/12/28 07:47:31;;;;;;;3.37;1.00;;;8.70;99.90;;;;;;10364654;28;20325;-72
2021/12/28 07:52:31;;;;;;;16.17;1.77;;;8.70;99.90;;;;;;10364518;28;20234;-73
2021/12/28 07:57:34;;;;;;;4.67;1.40;;;8.70;99.90;;;;;;10359370;28;20713;-71
2021/12/28 08:02:35;;;;;;;3.80;1.43;;;8.70;99.90;;;;;;10364359;28;20252;-70
2021/12/28 08:07:35;;;;;;;5.43;1.57;;;8.80;99.90;;;;;;10365243;28;20317;-70
2021/12/28 08:12:36;;;;;;;6.70;1.53;;;8.80;99.90;;;;;;10362555;28;20231;-71
2021/12/28 08:17:37;;;;;;;7.87;1.53;;;8.80;99.90;;;;;;10363461;28;20319;-71
2021/12/28 08:22:39;;;;;;;5.10;1.93;;;8.80;99.90;;;;;;10363734;28;20226;-71
2021/12/28 08:27:40;;;;;;;5.77;1.50;;;8.90;99.90;;;;;;10364890;28;20267;-71
2021/12/28 08:32:41;;;;;;;6.17;1.67;;;8.90;99.90;;;;;;10354848;28;20240;-71
2021/12/28 08:37:42;;;;;;;7.40;1.70;;;8.90;99.90;;;;;;10350131;28;20581;-72
2021/12/28 08:42:43;;;;;;;7.07;1.60;;;8.90;99.90;;;;;;10359421;28;20229;-74
2021/12/28 08:47:45;;;;;;;9.13;2.07;;;8.90;99.90;;;;;;10356766;28;20654;-73
2021/12/28 08:52:50;;;;;;;7.43;2.00;;;8.90;99.90;;;;;;10362675;28;20255;-70
2021/12/28 08:57:51;;;;;;;2.90;1.70;;;9.00;99.90;;;;;;10351110;28;20267;-71
2021/12/28 09:02:54;;;;;;;5.87;2.20;;;9.00;99.90;;;;;;10363004;28;20226;-72
2021/12/28 09:07:56;;;;;;;3.17;1.90;;;9.00;99.90;;;;;;10362327;28;20799;-70
2021/12/28 09:12:57;;;;;;;6.50;2.87;;;9.00;99.90;;;;;;10353297;28;20232;-73
2021/12/28 09:17:57;;;;;;;5.47;3.27;;;9.00;99.90;;;;;;10361424;28;20590;-72
2021/12/28 09:22:58;;;;;;;6.83;3.80;;;9.00;99.90;;;;;;10346964;28;20771;-70
2021/12/28 09:27:59;;;;;;;6.73;4.30;;;9.10;99.90;;;;;;10347406;28;20286;-71
2021/12/28 09:32:59;;;;;;;8.07;4.90;;;9.20;99.90;;;;;;10353428;28;20906;-71
2021/12/28 09:38:00;;;;;;;7.17;4.20;;;9.40;99.90;;;;;;10354575;28;20793;-70
2021/12/28 09:43:05;;;;;;;7.83;4.60;;;9.50;99.90;;;;;;10361970;28;20225;-71
2021/12/28 09:48:08;;;;;;;11.97;4.67;;;9.40;99.90;;;;;;10358008;28;20231;-70
2021/12/28 09:53:13;;;;;;;6.83;4.97;;;9.50;99.90;;;;;;10360578;28;20584;-71
2021/12/28 09:58:14;;;;;;;6.80;5.07;;;9.50;99.90;;;;;;10369509;28;20219;-72
2021/12/28 10:03:15;;;;;;;6.03;4.30;;;9.60;99.90;;;;;;10369843;28;20289;-71
2021/12/28 10:08:22;;;;;;;6.70;4.97;;;9.60;99.90;;;;;;10366343;28;20234;-74
2021/12/28 10:13:26;;;;;;;8.40;5.73;;;9.60;99.90;;;;;;10360713;28;20220;-74
2021/12/28 10:18:28;;;;;;;10.50;6.30;;;9.60;99.90;;;;;;10367246;28;20303;-73
2021/12/28 10:23:31;;;;;;;7.73;5.63;;;9.60;99.90;;;;;;10364964;28;20513;-75
2021/12/28 10:28:35;;;;;;;10.93;7.53;;;9.60;99.90;;;;;;10362818;28;20215;-76
2021/12/28 10:33:39;;;;;;;12.60;8.03;;;9.70;99.90;;;;;;10373005;28;20226;-73
2021/12/28 10:38:48;;;;;;;10.07;7.17;;;9.80;99.90;;;;;;10359918;28;20220;-71
2021/12/28 10:43:51;;;;;;;7.50;6.33;;;9.90;99.90;;;;;;10376443;28;20334;-70
2021/12/28 10:48:58;;;;;;;7.03;6.03;;;10.00;99.90;;;;;;10359982;28;20231;-70
2021/12/28 10:59:12;;;;;;;7.60;5.47;;;10.20;99.90;;;;;;10355571;28;20215;-73
2021/12/28 11:04:14;;;;;;;4.10;3.50;;;10.40;99.90;;;;;;10355717;28;20288;-75
2021/12/28 11:09:23;;;;;;;4.47;3.63;;;10.50;99.90;;;;;;10364174;28;20217;-75
2021/12/28 11:14:29;;;;;;;4.17;3.43;;;10.50;99.90;;;;;;10367503;28;20709;-74
2021/12/28 11:19:35;;;;;;;3.20;2.80;;;10.60;99.90;;;;;;10360073;28;20231;-74
2021/12/28 11:24:42;;;;;;;6.67;3.10;;;10.90;99.90;;;;;;10366210;28;20226;-75
2021/12/28 11:29:43;;;;;;;4.33;2.70;;;10.90;99.90;;;;;;10364887;28;20231;-74
2021/12/28 11:34:45;;;;;;;3.33;2.53;;;10.90;99.90;;;;;;10363946;28;20231;-73
2021/12/28 11:39:56;;;;;;;4.63;2.93;;;10.90;99.90;;;;;;10365524;28;20306;-72
2021/12/28 11:44:59;;;;;;;3.43;3.13;;;11.00;99.90;;;;;;10353211;28;20222;-76
2021/12/28 11:50:00;;;;;;;3.83;3.10;;;11.00;99.90;;;;;;10367911;28;20624;-75
2021/12/28 11:55:01;;;;;;;3.60;3.20;;;11.00;99.90;;;;;;10366762;28;20228;-74
2021/12/28 12:00:11;;;;;;;6.10;2.70;;;11.10;99.90;;;;;;10364339;28;20224;-75
2021/12/28 12:05:19;;;;;;;2.63;2.40;;;11.00;99.90;;;;;;10361612;28;20228;-74
2021/12/28 12:10:27;;;;;;;3.77;2.80;;;11.00;99.90;;;;;;10364613;28;20194;-74
2021/12/28 12:15:40;;;;;;;3.23;2.67;;;11.00;99.90;;;;;;10355384;28;20260;-74
2021/12/28 12:20:53;;;;;;;3.37;2.47;;;11.10;99.90;;;;;;10362902;28;20211;-74
2021/12/28 12:25:58;;;;;;;3.23;2.23;;;11.10;99.90;;;;;;10356560;28;20589;-74
2021/12/28 12:30:59;;;;;;;2.87;2.33;;;11.00;99.90;;;;;;10364187;28;20248;-75
2021/12/28 12:36:01;;;;;;;3.17;2.67;;;11.10;99.90;;;;;;10357767;28;20720;-74
2021/12/28 12:41:04;;;;;;;3.00;2.77;;;11.10;99.90;;;;;;10355387;28;20229;-75
2021/12/28 12:46:27;;;;;;;2.97;2.70;;;11.10;99.90;;;;;;10348573;28;20233;-75
2021/12/28 12:51:31;;;;;;;4.43;2.90;;;11.10;99.90;;;;;;10350081;28;20288;-76
2021/12/28 12:56:43;;;;;;;2.57;2.37;;;11.00;99.90;;;;;;10360229;28;20735;-74
2021/12/28 13:01:43;;;;;;;3.70;2.70;;;11.00;99.90;;;;;;10354880;28;20350;-72
2021/12/28 13:06:44;;;;;;;5.00;3.00;;;10.90;99.90;;;;;;10355075;28;20235;-72
2021/12/28 13:11:44;;;;;;;4.27;2.30;;;10.90;99.90;;;;;;10361050;28;20281;-75
2021/12/28 13:16:57;;;;;;;3.37;2.30;;;10.90;99.90;;;;;;10348765;28;20808;-74
2021/12/28 13:22:04;;;;;;;2.50;2.30;;;10.80;99.90;;;;;;10356625;28;20313;-76
2021/12/28 13:27:08;;;;;;;2.33;1.90;;;10.80;99.90;;;;;;10364389;28;20223;-74
2021/12/28 13:32:19;;;;;;;3.40;1.87;;;10.80;99.90;;;;;;10343227;28;20289;-75
2021/12/28 13:37:32;;;;;;;1.80;1.70;;;10.80;99.90;;;;;;10361654;28;20230;-75
2021/12/28 13:42:34;;;;;;;3.27;1.80;;;10.80;99.90;;;;;;10342984;28;20245;-76
2021/12/28 13:47:38;;;;;;;2.37;1.80;;;10.80;99.90;;;;;;10359902;28;20273;-75
2021/12/28 13:52:43;;;;;;;3.10;1.80;;;10.80;99.90;;;;;;10354851;28;20243;-75
2021/12/28 13:57:44;;;;;;;2.80;1.67;;;10.70;99.90;;;;;;10349823;28;20225;-76
2021/12/28 14:03:02;;;;;;;3.63;1.53;;;10.70;99.90;;;;;;10364971;28;20604;-75
2021/12/28 14:08:04;;;;;;;3.20;1.50;;;10.70;99.90;;;;;;10359713;28;20276;-76
2021/12/28 14:13:12;;;;;;;3.70;1.67;;;10.70;99.90;;;;;;10362052;28;20642;-73
2021/12/28 14:18:28;;;;;;;2.43;1.47;;;10.70;99.90;;;;;;10354480;28;20744;-73
2021/12/28 14:23:32;;;;;;;1.77;1.10;;;10.60;99.90;;;;;;10350519;28;20225;-73
2021/12/28 14:28:41;;;;;;;3.47;1.43;;;10.60;99.90;;;;;;10359764;28;20238;-74
2021/12/28 14:33:44;;;;;;;2.53;1.40;;;10.50;99.90;;;;;;10369365;28;20651;-75
2021/12/28 14:38:45;;;;;;;3.27;1.57;;;10.50;99.90;;;;;;10344357;28;20919;-75
2021/12/28 14:43:45;;;;;;;6.70;2.00;;;10.50;99.90;;;;;;10362194;28;20239;-72
2021/12/28 14:48:46;;;;;;;6.37;1.70;;;10.50;99.90;;;;;;10370225;28;20324;-72
2021/12/28 14:53:47;;;;;;;6.23;1.67;;;10.50;99.90;;;;;;10366745;28;20593;-73
2021/12/28 14:58:47;;;;;;;6.20;1.70;;;10.60;99.90;;;;;;10365605;28;20203;-72
2021/12/28 15:03:57;;;;;;;7.03;1.43;;;10.70;99.90;;;;;;10363740;28;20558;-74
2021/12/28 15:08:58;;;;;;;10.57;2.03;;;10.60;99.90;;;;;;10364185;28;20226;-75
2021/12/28 15:13:58;;;;;;;5.57;1.73;;;10.70;99.90;;;;;;10360412;28;20233;-74
2021/12/28 15:18:59;;;;;;;8.77;2.10;;;10.60;99.90;;;;;;10350232;28;20226;-76
2021/12/28 15:23:59;;;;;;;10.67;2.40;;;10.50;99.90;;;;;;10365325;28;20601;-75
2021/12/28 15:29:00;;;;;;;10.07;2.20;;;10.40;99.90;;;;;;10357639;28;20975;-75
2021/12/28 15:34:00;;;;;;;6.80;2.17;;;10.20;99.90;;;;;;10347737;28;20258;-74
2021/12/28 15:39:04;;;;;;;8.83;2.00;;;10.00;99.90;;;;;;10365490;28;20701;-76
2021/12/28 15:44:04;;;;;;;8.60;1.97;;;9.90;99.90;;;;;;10359118;28;20225;-74
2021/12/28 15:49:11;;;;;;;9.13;2.30;;;10.00;99.90;;;;;;10352462;28;20242;-75
2021/12/28 15:54:13;;;;;;;7.47;1.87;;;10.10;99.90;;;;;;10359853;28;20904;-75
2021/12/28 15:59:14;;;;;;;6.07;2.03;;;10.10;99.90;;;;;;10351884;28;20327;-75
2021/12/28 16:04:14;;;;;;;5.83;1.70;;;10.10;99.90;;;;;;10357549;28;20296;-76
2021/12/28 16:09:15;;;;;;;6.40;2.23;;;10.10;99.90;;;;;;10364150;28;20218;-74
2021/12/28 16:14:16;;;;;;;8.40;1.63;;;9.90;99.90;;;;;;10349997;28;20230;-74
2021/12/28 16:19:16;;;;;;;7.60;1.67;;;9.70;99.90;;;;;;10362229;28;20590;-75
2021/12/28 16:24:18;;;;;;;10.07;1.80;;;9.40;99.90;;;;;;10363296;28;20225;-72
2021/12/28 16:29:19;;;;;;;7.57;1.73;;;9.30;99.90;;;;;;10365807;28;20227;-75
2021/12/28 16:34:20;;;;;;;7.67;2.00;;;9.10;99.90;;;;;;10359298;28;20243;-72
2021/12/28 16:39:21;;;;;;;7.80;1.87;;;9.00;99.90;;;;;;10350813;28;20254;-73
2021/12/28 16:44:21;;;;;;;8.40;2.20;;;8.90;99.90;;;;;;10359715;28;20220;-74
2021/12/28 16:49:23;;;;;;;13.40;3.03;;;8.90;99.90;;;;;;10354757;28;20873;-74
2021/12/28 16:54:24;;;;;;;12.33;3.00;;;8.80;99.90;;;;;;10350657;28;20231;-74
2021/12/28 16:59:25;;;;;;;11.03;2.50;;;8.80;99.90;;;;;;10357553;28;20226;-75
2021/12/28 17:04:27;;;;;;;11.30;2.47;;;8.70;99.90;;;;;;10357418;28;20223;-75
2021/12/28 17:09:28;;;;;;;10.70;2.50;;;8.70;99.90;;;;;;10356476;28;20215;-76
2021/12/28 17:14:28;;;;;;;15.37;2.27;;;8.70;99.90;;;;;;10357866;28;20219;-74
2021/12/28 17:19:29;;;;;;;12.10;2.93;;;8.70;99.90;;;;;;10351304;28;20250;-74
2021/12/28 17:24:30;;;;;;;8.77;2.30;;;8.80;99.90;;;;;;10354236;28;20230;-74
2021/12/28 17:29:31;;;;;;;13.53;2.63;;;8.90;99.90;;;;;;10357174;28;20234;-75
2021/12/28 17:34:33;;;;;;;11.97;3.10;;;8.90;99.90;;;;;;10353354;28;20309;-74
2021/12/28 17:39:34;;;;;;;11.57;2.50;;;9.00;99.90;;;;;;10361458;28;20223;-76
2021/12/28 17:44:35;;;;;;;19.07;3.30;;;9.10;99.90;;;;;;10347737;28;20706;-70
2021/12/28 17:49:36;;;;;;;8.47;2.13;;;9.20;99.90;;;;;;10348549;28;20226;-75
2021/12/28 17:54:36;;;;;;;8.27;2.20;;;9.10;99.90;;;;;;10349745;28;20222;-75
2021/12/28 17:59:37;;;;;;;8.90;2.17;;;9.20;99.90;;;;;;10354444;28;20733;-75
2021/12/28 18:04:41;;;;;;;9.50;2.77;;;9.30;99.90;;;;;;10362912;28;20309;-74
2021/12/28 18:09:42;;;;;;;14.23;2.87;;;9.30;99.90;;;;;;10370373;28;20217;-75
2021/12/28 18:14:42;;;;;;;11.23;2.80;;;9.40;99.90;;;;;;10353095;28;20220;-75
2021/12/28 18:19:45;;;;;;;13.37;3.40;;;9.50;99.90;;;;;;10370981;28;20353;-75
2021/12/28 18:24:45;;;;;;;13.27;2.70;;;9.60;99.90;;;;;;10362604;28;20223;-75
2021/12/28 18:29:46;;;;;;;11.80;3.00;;;9.70;99.90;;;;;;10359685;28;20220;-75
2021/12/28 18:34:47;;;;;;;10.60;2.73;;;9.70;99.90;;;;;;10364497;28;20227;-77
2021/12/28 18:39:47;;;;;;;13.93;2.70;;;9.70;99.90;;;;;;10351732;28;20216;-75
2021/12/28 18:44:48;;;;;;;11.13;3.20;;;9.60;99.90;;;;;;10353761;28;20824;-75
2021/12/28 18:49:49;;;;;;;13.57;3.80;;;9.50;99.90;;;;;;10359227;28;20318;-73
2021/12/28 18:54:49;;;;;;;10.53;2.57;;;9.50;99.90;;;;;;10353709;28;20589;-76
2021/12/28 18:59:50;;;;;;;8.27;2.40;;;9.50;99.90;;;;;;10353732;28;20318;-76
2021/12/28 19:04:50;;;;;;;14.03;3.33;;;9.50;99.90;;;;;;10354269;28;20237;-75
2021/12/28 19:09:51;;;;;;;11.40;2.80;;;9.40;99.90;;;;;;10351301;28;20217;-75
2021/12/28 19:14:54;;;;;;;8.37;2.53;;;9.40;99.90;;;;;;10360914;28;20214;-75
2021/12/28 19:19:55;;;;;;;13.73;3.77;;;9.40;99.90;;;;;;10344955;28;20232;-74
2021/12/28 19:24:55;;;;;;;11.37;3.33;;;9.30;99.90;;;;;;10359390;28;20225;-74
2021/12/28 19:29:56;;;;;;;12.33;3.17;;;9.30;99.90;;;;;;10352064;28;20231;-73
2021/12/28 19:34:56;;;;;;;10.73;2.83;;;9.20;99.90;;;;;;10352212;28;20236;-75
2021/12/28 19:39:57;;;;;;;11.80;2.97;;;9.10;99.90;;;;;;10358418;28;20228;-75
2021/12/28 19:44:58;;;;;;;10.00;3.07;;;9.10;99.90;;;;;;10358534;28;20725;-75
2021/12/28 19:49:59;;;;;;;19.67;4.13;;;9.00;99.90;;;;;;10344297;28;20237;-75
2021/12/28 19:55:00;;;;;;;15.73;3.40;;;9.00;99.90;;;;;;10353263;28;20233;-77
2021/12/28 20:00:03;;;;;;;18.20;4.03;;;9.00;99.90;;;;;;10366378;28;20223;-76
2021/12/28 20:05:08;;;;;;;12.53;3.30;;;9.00;99.90;;;;;;10351664;28;20237;-76
2021/12/28 20:10:13;;;;;;;16.27;3.23;;;9.00;99.90;;;;;;10364214;28;20882;-75
2021/12/28 20:15:15;;;;;;;16.03;3.80;;;9.10;99.90;;;;;;10357040;28;20254;-76
2021/12/28 20:20:16;;;;;;;18.70;3.50;;;9.10;99.90;;;;;;10353698;28;20184;-75
2021/12/28 20:25:20;;;;;;;15.70;3.90;;;9.00;99.90;;;;;;10354957;28;20220;-75
2021/12/28 20:30:23;;;;;;;16.30;3.60;;;9.10;99.90;;;;;;10348045;28;20195;-75
2021/12/28 20:35:25;;;;;;;19.43;3.60;;;9.20;99.90;;;;;;10357150;28;20238;-74
2021/12/28 20:40:26;;;;;;;18.67;3.63;;;9.30;99.90;;;;;;10353780;28;20219;-75
2021/12/28 20:45:27;;;;;;;11.13;3.40;;;9.40;99.90;;;;;;10365606;28;20304;-75
2021/12/28 20:50:28;;;;;;;16.40;2.90;;;9.50;99.90;;;;;;10352102;28;20233;-76
2021/12/28 20:55:29;;;;;;;11.43;3.17;;;9.70;99.90;;;;;;10348845;28;20232;-75
2021/12/28 21:00:31;;;;;;;13.53;2.97;;;9.70;99.90;;;;;;10355257;28;20725;-75
2021/12/28 21:05:32;;;;;;;11.37;3.30;;;9.80;99.90;;;;;;10361596;28;20719;-75
2021/12/28 21:10:34;;;;;;;11.97;2.53;;;9.90;99.90;;;;;;10349493;28;20220;-75
2021/12/28 21:15:35;;;;;;;11.40;3.13;;;10.00;99.90;;;;;;10346411;28;20227;-75
2021/12/28 21:20:36;;;;;;;13.57;2.47;;;10.00;99.90;;;;;;10355686;28;20214;-75
2021/12/28 21:25:37;;;;;;;6.27;1.93;;;10.10;99.90;;;;;;10347934;28;20244;-74
2021/12/28 21:30:38;;;;;;;6.63;1.80;;;10.20;99.90;;;;;;10361440;28;20304;-74
2021/12/28 21:35:38;;;;;;;5.70;1.57;;;10.20;99.90;;;;;;10345768;28;20240;-74
2021/12/28 21:40:39;;;;;;;9.93;1.97;;;10.10;99.90;;;;;;10363446;28;20222;-74
2021/12/28 21:45:40;;;;;;;8.67;1.93;;;10.10;99.90;;;;;;10364180;28;20311;-75
2021/12/28 21:50:41;;;;;;;6.83;1.83;;;10.10;99.90;;;;;;10355783;28;20733;-75
2021/12/28 21:55:41;;;;;;;4.27;1.50;;;10.00;99.90;;;;;;10364951;28;20637;-75
2021/12/28 22:00:45;;;;;;;10.07;1.90;;;9.90;99.90;;;;;;10363584;28;20225;-75
2021/12/28 22:05:45;;;;;;;7.63;2.00;;;9.80;99.90;;;;;;10349355;28;20641;-75
2021/12/28 22:10:46;;;;;;;7.93;1.97;;;9.70;99.90;;;;;;10356005;28;20250;-75
2021/12/28 22:15:47;;;;;;;4.63;1.60;;;9.70;99.90;;;;;;10369402;28;20236;-75
2021/12/28 22:20:47;;;;;;;7.47;1.50;;;9.60;99.90;;;;;;10362067;28;20215;-74
2021/12/28 22:25:54;;;;;;;5.20;1.20;;;9.60;99.90;;;;;;10354256;28;20215;-73
2021/12/28 22:30:58;;;;;;;6.97;1.47;;;9.60;99.90;;;;;;10358013;28;20276;-73
2021/12/28 22:35:59;;;;;;;7.73;1.53;;;9.60;99.90;;;;;;10348954;28;20223;-73
2021/12/28 22:41:01;;;;;;;5.37;1.07;;;9.70;99.90;;;;;;10363706;28;20215;-73
2021/12/28 22:46:02;;;;;;;4.20;1.43;;;9.60;99.90;;;;;;10352227;28;20728;-73
2021/12/28 22:51:03;;;;;;;4.20;1.37;;;9.60;99.90;;;;;;10360498;28;20222;-74
2021/12/28 22:56:04;;;;;;;5.50;1.50;;;9.50;99.90;;;;;;10353917;28;20299;-75
2021/12/28 23:01:09;;;;;;;4.50;1.00;;;9.50;99.90;;;;;;10353410;28;20230;-74
2021/12/28 23:06:10;;;;;;;7.80;1.40;;;9.40;99.90;;;;;;10361754;28;20327;-73
2021/12/28 23:11:11;;;;;;;5.50;1.10;;;9.50;99.90;;;;;;10348509;28;20250;-74
2021/12/28 23:16:11;;;;;;;3.03;1.20;;;9.50;99.90;;;;;;10348546;28;20306;-74
2021/12/28 23:21:12;;;;;;;3.73;0.90;;;9.60;99.90;;;;;;10357516;28;20230;-74
2021/12/28 23:26:13;;;;;;;3.97;0.83;;;9.60;99.90;;;;;;10357110;28;20228;-76
2021/12/28 23:31:16;;;;;;;2.33;1.13;;;9.70;99.90;;;;;;10361514;28;20211;-75
2021/12/28 23:36:17;;;;;;;2.33;0.87;;;9.80;99.90;;;;;;10349675;28;20249;-75
2021/12/28 23:41:17;;;;;;;3.03;1.17;;;9.80;99.90;;;;;;10354019;28;20671;-75
2021/12/28 23:46:19;;;;;;;3.67;1.00;;;9.80;99.90;;;;;;10347035;28;20280;-72
2021/12/28 23:51:20;;;;;;;1.60;0.97;;;9.90;99.90;;;;;;10351673;28;20268;-73
2021/12/28 23:56:24;;;;;;;3.33;1.57;;;10.00;99.90;;;;;;10353544;28;20244;-77
